createdAt,value
2022-11-24T00:02:26.138Z,6.89
2022-11-24T00:07:28.099Z,6.93
2022-11-24T00:12:30.176Z,6.96
2022-11-24T00:17:32.615Z,6.93
2022-11-24T00:22:34.424Z,6.95
2022-11-24T00:27:36.276Z,6.87
2022-11-24T00:32:38.039Z,6.80
2022-11-24T00:37:40.067Z,6.81
2022-11-24T00:42:41.875Z,6.90
2022-11-24T00:47:43.962Z,6.79
2022-11-24T00:52:47.709Z,6.75
2022-11-24T00:57:49.469Z,6.79
2022-11-24T01:02:52.655Z,6.75
2022-11-24T01:07:54.775Z,6.60
2022-11-24T01:12:56.790Z,6.74
2022-11-24T01:17:59.025Z,6.81
2022-11-24T01:23:00.879Z,6.87
2022-11-24T01:28:03.015Z,6.91
2022-11-24T01:33:05.329Z,6.95
2022-11-24T01:38:07.183Z,6.86
2022-11-24T01:43:21.392Z,6.77
2022-11-24T01:48:27.811Z,6.76
2022-11-24T01:53:30.858Z,6.77
2022-11-24T01:58:34.742Z,6.73
2022-11-24T02:03:39.891Z,6.89
2022-11-24T02:09:09.451Z,6.88
2022-11-24T02:14:14.042Z,6.86
2022-11-24T02:19:29.144Z,6.93
2022-11-24T02:24:41.434Z,6.96
2022-11-24T02:29:43.532Z,6.93
2022-11-24T02:34:45.595Z,7.03
2022-11-24T02:39:48.700Z,6.94
2022-11-24T02:44:56.222Z,6.94
2022-11-24T02:49:58.097Z,6.95
2022-11-24T02:55:02.478Z,6.94
2022-11-24T03:00:04.936Z,6.88
2022-11-24T03:05:07.284Z,7.20
2022-11-24T03:10:09.459Z,7.17
2022-11-24T03:15:11.656Z,7.04
2022-11-24T03:20:14.463Z,7.09
2022-11-24T03:25:16.382Z,6.99
2022-11-24T03:30:18.882Z,6.97
2022-11-24T03:35:21.966Z,6.92
2022-11-24T03:40:23.798Z,7.01
2022-11-24T03:50:59.405Z,6.95
2022-11-24T03:56:02.298Z,7.03
2022-11-24T04:01:04.521Z,6.98
2022-11-24T04:06:06.415Z,6.95
2022-11-24T04:11:08.356Z,6.94
2022-11-24T04:16:10.066Z,7.07
2022-11-24T04:21:11.824Z,6.94
2022-11-24T04:26:13.666Z,7.03
2022-11-24T04:31:15.508Z,7.12
2022-11-24T04:36:17.213Z,7.12
2022-11-24T04:41:19.025Z,6.93
2022-11-24T04:46:20.648Z,6.88
2022-11-24T04:51:23.374Z,7.02
2022-11-24T04:56:24.983Z,7.06
2022-11-24T05:01:27.576Z,6.97
2022-11-24T05:06:29.262Z,7.14
2022-11-24T05:11:30.930Z,7.24
2022-11-24T05:16:32.635Z,7.32
2022-11-24T05:21:34.640Z,7.23
2022-11-24T05:26:36.495Z,7.25
2022-11-24T05:31:38.280Z,7.19
2022-11-24T05:36:55.184Z,7.26
2022-11-24T05:41:56.848Z,7.39
2022-11-24T05:46:58.619Z,7.55
2022-11-24T05:52:00.177Z,7.76
2022-11-24T05:57:01.727Z,7.76
2022-11-24T06:02:03.776Z,7.66
2022-11-24T06:07:09.006Z,7.58
2022-11-24T06:12:11.892Z,7.54
2022-11-24T06:17:13.594Z,7.49
2022-11-24T06:22:15.253Z,7.45
2022-11-24T06:27:16.861Z,7.39
2022-11-24T06:32:19.701Z,7.41
2022-11-24T06:37:21.600Z,7.42
2022-11-24T06:42:23.163Z,7.36
2022-11-24T06:47:24.681Z,7.35
2022-11-24T06:52:26.465Z,7.34
2022-11-24T06:57:31.213Z,7.24
2022-11-24T07:02:32.845Z,7.16
2022-11-24T07:07:34.531Z,7.09
2022-11-24T07:12:36.475Z,7.08
2022-11-24T07:17:42.409Z,6.99
2022-11-24T07:22:43.996Z,6.92
2022-11-24T07:27:45.578Z,6.96
2022-11-24T07:32:47.194Z,6.93
2022-11-24T07:37:48.780Z,6.82
2022-11-24T07:42:50.776Z,6.84
2022-11-24T07:47:52.403Z,6.84
2022-11-24T07:52:54.043Z,6.85
2022-11-24T07:57:59.781Z,6.82
2022-11-24T08:03:01.356Z,6.78
2022-11-24T08:08:03.150Z,6.80
2022-11-24T08:13:04.690Z,6.84
2022-11-24T08:18:06.412Z,6.86
2022-11-24T08:23:08.984Z,7.02
2022-11-24T08:28:10.564Z,7.12
2022-11-24T08:33:12.933Z,7.14
2022-11-24T08:38:17.090Z,7.20
2022-11-24T08:43:18.681Z,7.33
2022-11-24T08:48:21.577Z,7.38
2022-11-24T08:53:23.489Z,7.53
2022-11-24T08:58:25.063Z,7.59
2022-11-24T09:03:26.584Z,7.69
2022-11-24T09:08:29.885Z,7.65
2022-11-24T09:13:31.551Z,7.71
2022-11-24T09:18:33.206Z,7.77
2022-11-24T09:23:35.039Z,7.86
2022-11-24T09:28:36.675Z,8.05
2022-11-24T09:33:38.691Z,8.25
2022-11-24T09:38:41.010Z,8.16
2022-11-24T09:43:45.622Z,8.38
2022-11-24T09:48:51.206Z,8.36
2022-11-24T09:54:10.722Z,8.21
2022-11-24T09:59:21.731Z,8.25
2022-11-24T10:04:37.305Z,8.32
2022-11-24T10:10:34.201Z,8.37
2022-11-24T10:15:48.000Z,8.54
2022-11-24T10:20:59.316Z,8.71
2022-11-24T10:26:02.130Z,8.81
2022-11-24T10:31:30.180Z,9.61
2022-11-24T10:36:47.942Z,8.91
2022-11-24T10:42:11.568Z,9.24
2022-11-24T10:47:22.772Z,9.49
2022-11-24T10:52:27.225Z,10.65
2022-11-24T10:57:35.472Z,9.41
2022-11-24T11:02:39.381Z,9.43
2022-11-24T11:07:41.742Z,9.73
2022-11-24T11:12:44.785Z,9.88
2022-11-24T11:17:47.010Z,10.66
2022-11-24T11:22:50.731Z,10.77
2022-11-24T11:28:31.478Z,11.13
2022-11-24T11:39:01.325Z,11.61
2022-11-24T11:44:25.959Z,11.23
2022-11-24T11:49:27.853Z,11.15
2022-11-24T11:54:44.382Z,11.03
2022-11-24T12:00:04.439Z,10.39
2022-11-24T12:05:24.090Z,10.51
2022-11-24T12:10:31.594Z,10.71
2022-11-24T12:15:50.244Z,10.89
2022-11-24T12:21:22.910Z,11.11
2022-11-24T12:26:53.492Z,11.39
2022-11-24T12:31:58.112Z,11.57
2022-11-24T12:37:08.354Z,11.67
2022-11-24T12:42:19.212Z,11.26
2022-11-24T12:47:26.727Z,11.72
2022-11-24T12:52:57.142Z,12.35
2022-11-24T12:58:34.567Z,11.71
2022-11-24T13:03:39.264Z,11.31
2022-11-24T13:08:41.333Z,11.40
2022-11-24T13:14:01.003Z,11.62
2022-11-24T13:19:10.195Z,10.71
2022-11-24T13:24:19.206Z,11.25
2022-11-24T13:29:28.045Z,11.41
2022-11-24T13:34:38.849Z,11.13
2022-11-24T13:39:52.060Z,10.83
2022-11-24T13:44:55.932Z,10.97
2022-11-24T13:56:28.431Z,10.79
2022-11-24T14:01:37.138Z,10.61
2022-11-24T14:06:57.717Z,10.53
2022-11-24T14:12:08.303Z,10.29
2022-11-24T14:17:16.101Z,10.12
2022-11-24T14:22:22.830Z,9.94
2022-11-24T14:27:39.236Z,9.77
2022-11-24T14:32:42.343Z,9.71
2022-11-24T14:37:44.002Z,9.60
2022-11-24T14:42:50.324Z,9.39
2022-11-24T14:47:52.483Z,9.19
2022-11-24T14:52:58.368Z,9.01
2022-11-24T14:58:00.387Z,8.92
2022-11-24T15:03:01.994Z,8.59
2022-11-24T15:08:04.183Z,8.55
2022-11-24T15:13:19.811Z,8.40
2022-11-24T15:18:28.688Z,8.35
2022-11-24T15:23:32.269Z,8.37
2022-11-24T15:28:33.893Z,8.25
2022-11-24T15:33:35.641Z,8.01
2022-11-24T15:38:37.576Z,7.70
2022-11-24T15:43:40.982Z,7.60
2022-11-24T15:55:36.484Z,7.53
2022-11-24T16:00:38.224Z,7.30
2022-11-24T16:05:40.715Z,7.50
2022-11-24T16:10:44.017Z,7.24
2022-11-24T16:15:46.050Z,7.22
2022-11-24T16:20:49.754Z,7.27
2022-11-24T16:25:51.408Z,7.19
2022-11-24T16:30:53.112Z,7.29
2022-11-24T16:35:54.761Z,7.16
2022-11-24T16:40:56.905Z,7.11
2022-11-24T16:46:19.073Z,7.10
2022-11-24T16:51:23.255Z,7.09
2022-11-24T16:56:25.212Z,7.07
2022-11-24T17:01:27.221Z,7.02
2022-11-24T17:06:29.209Z,6.96
2022-11-24T17:11:31.058Z,6.85
2022-11-24T17:16:32.842Z,6.79
2022-11-24T17:21:34.492Z,6.72
2022-11-24T17:26:36.061Z,6.66
2022-11-24T17:31:39.841Z,6.68
2022-11-24T17:36:44.711Z,6.62
2022-11-24T17:41:46.392Z,6.57
2022-11-24T17:46:48.110Z,6.48
2022-11-24T17:51:50.678Z,6.35
2022-11-24T17:56:52.342Z,6.08
2022-11-24T18:01:54.569Z,6.07
2022-11-24T18:06:56.226Z,6.28
2022-11-24T18:11:57.835Z,6.10
2022-11-24T18:16:59.818Z,6.25
2022-11-24T18:22:01.840Z,6.41
2022-11-24T18:27:03.738Z,6.55
2022-11-24T18:32:06.072Z,6.75
2022-11-24T18:37:09.374Z,6.71
2022-11-24T18:42:11.650Z,6.74
2022-11-24T18:47:13.308Z,7.02
2022-11-24T18:52:15.087Z,6.88
2022-11-24T18:57:16.783Z,6.76
2022-11-24T19:02:18.402Z,6.71
2022-11-24T19:07:20.582Z,6.85
2022-11-24T19:12:22.346Z,6.88
2022-11-24T19:17:24.090Z,6.82
2022-11-24T19:22:25.713Z,6.67
2022-11-24T19:27:27.264Z,6.75
2022-11-24T19:32:31.275Z,6.85
2022-11-24T19:37:33.087Z,7.00
2022-11-24T19:42:34.907Z,6.87
2022-11-24T19:47:36.600Z,6.87
2022-11-24T19:52:38.346Z,6.89
2022-11-24T19:57:40.435Z,6.71
2022-11-24T20:02:42.189Z,6.78
2022-11-24T20:07:43.886Z,6.76
2022-11-24T20:12:45.533Z,6.59
2022-11-24T20:17:47.275Z,6.44
2022-11-24T20:22:48.877Z,6.45
2022-11-24T20:27:50.774Z,6.42
2022-11-24T20:32:52.390Z,6.28
2022-11-24T20:38:06.581Z,6.28
2022-11-24T20:43:08.187Z,6.23
2022-11-24T20:48:09.841Z,6.16
2022-11-24T20:53:11.463Z,6.16
2022-11-24T20:58:13.063Z,6.04
2022-11-24T21:03:14.660Z,5.99
2022-11-24T21:08:17.816Z,5.92
2022-11-24T21:13:19.641Z,5.90
2022-11-24T21:18:22.408Z,5.82
2022-11-24T21:23:24.071Z,5.68
2022-11-24T21:28:26.158Z,5.79
2022-11-24T21:33:27.831Z,5.81
2022-11-24T21:38:30.216Z,5.81
2022-11-24T21:43:33.002Z,5.84
2022-11-24T21:48:36.206Z,5.82
2022-11-24T21:53:38.566Z,5.97
2022-11-24T21:58:46.822Z,5.99
2022-11-24T22:03:52.652Z,6.03
2022-11-24T22:08:55.175Z,6.05
2022-11-24T22:13:56.883Z,6.14
2022-11-24T22:18:59.737Z,6.23
2022-11-24T22:24:01.981Z,6.28
2022-11-24T22:29:04.073Z,6.35
2022-11-24T22:34:05.949Z,6.36
2022-11-24T22:39:11.922Z,6.43
2022-11-24T22:44:13.666Z,6.54
2022-11-24T22:49:15.372Z,6.65
2022-11-24T22:54:19.065Z,6.68
2022-11-24T22:59:20.732Z,6.73
2022-11-24T23:04:22.454Z,6.70
2022-11-24T23:09:24.105Z,6.80
2022-11-24T23:14:26.783Z,6.66
2022-11-24T23:19:28.477Z,6.77
2022-11-24T23:24:32.593Z,6.74
2022-11-24T23:29:34.425Z,6.86
2022-11-24T23:34:36.270Z,7.04
2022-11-24T23:39:38.211Z,7.07
2022-11-24T23:44:39.824Z,7.06
2022-11-24T23:49:41.980Z,7.15
2022-11-24T23:54:49.553Z,7.14
2022-11-24T23:59:51.242Z,7.18
